createdAt,value
2018-09-14T00:00:15.001Z,62.40
2018-09-14T00:00:46.894Z,62.40
2018-09-14T00:01:18.851Z,62.60
2018-09-14T00:01:50.677Z,62.60
2018-09-14T00:02:22.562Z,62.60
2018-09-14T00:02:54.390Z,62.60
2018-09-14T00:03:26.309Z,62.50
2018-09-14T00:03:58.290Z,62.60
2018-09-14T00:04:30.312Z,62.60
2018-09-14T00:05:02.368Z,62.60
2018-09-14T00:05:34.144Z,62.60
2018-09-14T00:06:06.157Z,62.60
2018-09-14T00:06:38.280Z,62.60
2018-09-14T00:07:10.091Z,62.60
2018-09-14T00:07:42.044Z,62.60
2018-09-14T00:08:14.020Z,62.60
2018-09-14T00:08:45.819Z,62.60
2018-09-14T00:09:17.774Z,62.70
2018-09-14T00:09:49.649Z,62.70
2018-09-14T00:10:21.640Z,62.60
2018-09-14T00:10:53.460Z,62.60
2018-09-14T00:11:25.290Z,62.60
2018-09-14T00:11:57.088Z,62.60
2018-09-14T00:12:29.109Z,62.60
2018-09-14T00:13:00.925Z,62.60
2018-09-14T00:13:32.900Z,62.60
2018-09-14T00:14:04.679Z,62.60
2018-09-14T00:14:36.554Z,62.50
2018-09-14T00:15:08.404Z,62.60
2018-09-14T00:15:40.279Z,62.50
2018-09-14T00:16:12.174Z,62.50
2018-09-14T00:16:44.023Z,63.00
2018-09-14T00:17:16.013Z,62.50
2018-09-14T00:17:47.914Z,63.30
2018-09-14T00:18:19.710Z,62.70
2018-09-14T00:18:51.630Z,62.60
2018-09-14T00:19:23.489Z,62.70
2018-09-14T00:19:55.340Z,62.60
2018-09-14T00:20:27.256Z,62.70
2018-09-14T00:20:59.129Z,62.60
2018-09-14T00:21:30.930Z,62.80
2018-09-14T00:22:02.814Z,62.70
2018-09-14T00:22:34.941Z,62.70
2018-09-14T00:23:06.804Z,62.70
2018-09-14T00:23:38.639Z,62.80
2018-09-14T00:24:10.508Z,62.70
2018-09-14T00:24:42.568Z,62.70
2018-09-14T00:25:14.550Z,62.90
2018-09-14T00:25:46.364Z,62.80
2018-09-14T00:26:18.231Z,62.90
2018-09-14T00:26:50.221Z,62.90
2018-09-14T00:27:22.012Z,62.80
2018-09-14T00:27:53.909Z,63.60
2018-09-14T00:28:25.850Z,62.80
2018-09-14T00:28:57.702Z,62.80
2018-09-14T00:29:29.522Z,62.80
2018-09-14T00:30:01.307Z,62.90
2018-09-14T00:30:33.145Z,63.00
2018-09-14T00:31:04.982Z,63.00
2018-09-14T00:31:36.859Z,62.80
2018-09-14T00:32:08.699Z,62.80
2018-09-14T00:32:40.532Z,62.90
2018-09-14T00:33:12.390Z,62.90
2018-09-14T00:33:44.508Z,62.80
2018-09-14T00:34:16.338Z,62.80
2018-09-14T00:34:48.317Z,62.90
2018-09-14T00:35:20.145Z,62.80
2018-09-14T00:35:52.274Z,62.80
2018-09-14T00:36:24.120Z,62.80
2018-09-14T00:36:55.922Z,62.80
2018-09-14T00:37:27.749Z,62.80
2018-09-14T00:37:59.610Z,62.90
2018-09-14T00:38:31.789Z,62.90
2018-09-14T00:39:03.679Z,62.90
2018-09-14T00:39:35.494Z,62.90
2018-09-14T00:40:07.569Z,63.00
2018-09-14T00:40:39.581Z,62.90
2018-09-14T00:41:11.469Z,63.00
2018-09-14T00:41:43.319Z,63.10
2018-09-14T00:42:15.294Z,62.90
2018-09-14T00:42:47.119Z,62.90
2018-09-14T00:43:18.996Z,63.00
2018-09-14T00:43:50.788Z,62.60
2018-09-14T00:44:22.919Z,63.00
2018-09-14T00:44:54.825Z,63.10
2018-09-14T00:45:26.688Z,63.00
2018-09-14T00:45:58.525Z,63.00
2018-09-14T00:46:30.334Z,63.70
2018-09-14T00:47:02.299Z,63.10
2018-09-14T00:47:34.126Z,63.00
2018-09-14T00:48:05.958Z,63.00
2018-09-14T00:48:37.818Z,62.90
2018-09-14T00:49:09.670Z,62.90
2018-09-14T00:49:41.599Z,63.00
2018-09-14T00:50:13.447Z,63.00
2018-09-14T00:50:45.512Z,63.10
2018-09-14T00:51:17.321Z,62.80
2018-09-14T00:51:49.140Z,62.90
2018-09-14T00:52:21.169Z,63.10
2018-09-14T00:52:53.129Z,63.00
2018-09-14T00:53:24.945Z,63.10
2018-09-14T00:53:56.809Z,63.10
2018-09-14T00:54:28.707Z,63.00
2018-09-14T00:55:00.677Z,63.10
2018-09-14T00:55:32.599Z,63.00
2018-09-14T00:56:04.490Z,63.10
2018-09-14T00:56:36.350Z,63.00
2018-09-14T00:57:08.292Z,63.10
2018-09-14T00:57:40.374Z,63.10
2018-09-14T00:58:12.170Z,63.10
2018-09-14T00:58:44.030Z,63.00
2018-09-14T00:59:15.861Z,63.10
2018-09-14T00:59:47.730Z,63.30
2018-09-14T01:00:19.562Z,63.20
2018-09-14T01:00:51.449Z,63.00
2018-09-14T01:01:23.355Z,63.10
2018-09-14T01:01:55.220Z,63.10
2018-09-14T01:02:27.082Z,63.10
2018-09-14T01:02:59.145Z,63.00
2018-09-14T01:03:30.989Z,63.00
2018-09-14T01:04:02.858Z,63.00
2018-09-14T01:04:35.002Z,63.20
2018-09-14T01:05:06.922Z,63.10
2018-09-14T01:05:38.788Z,63.10
2018-09-14T01:06:10.689Z,63.10
2018-09-14T01:06:42.797Z,63.20
2018-09-14T01:07:14.748Z,63.10
2018-09-14T01:07:46.567Z,63.10
2018-09-14T01:08:18.377Z,63.00
2018-09-14T01:08:50.226Z,63.00
2018-09-14T01:09:22.218Z,63.10
2018-09-14T01:09:54.079Z,63.10
2018-09-14T01:10:26.065Z,63.20
2018-09-14T01:10:58.029Z,63.10
2018-09-14T01:11:30.119Z,63.10
2018-09-14T01:12:01.966Z,63.20
2018-09-14T01:12:33.962Z,63.30
2018-09-14T01:13:05.837Z,63.10
2018-09-14T01:13:37.612Z,63.30
2018-09-14T01:14:09.505Z,63.20
2018-09-14T01:14:41.329Z,63.30
2018-09-14T01:15:13.158Z,63.20
2018-09-14T01:15:44.966Z,63.30
2018-09-14T01:16:16.831Z,63.00
2018-09-14T01:16:48.748Z,63.20
2018-09-14T01:17:20.578Z,63.20
2018-09-14T01:17:52.674Z,63.30
2018-09-14T01:18:24.506Z,63.30
2018-09-14T01:18:56.471Z,63.30
2018-09-14T01:19:28.520Z,63.30
2018-09-14T01:20:00.477Z,63.20
2018-09-14T01:20:32.520Z,63.10
2018-09-14T01:21:04.646Z,63.20
2018-09-14T01:21:36.453Z,63.30
2018-09-14T01:22:08.260Z,63.40
2018-09-14T01:22:40.103Z,63.30
2018-09-14T01:23:12.008Z,63.20
2018-09-14T01:23:43.891Z,63.40
2018-09-14T01:24:15.733Z,63.40
2018-09-14T01:24:47.600Z,63.30
2018-09-14T01:25:19.506Z,63.40
2018-09-14T01:25:51.385Z,63.40
2018-09-14T01:26:23.410Z,63.40
2018-09-14T01:26:55.243Z,63.30
2018-09-14T01:27:27.116Z,63.30
2018-09-14T01:27:59.068Z,63.40
2018-09-14T01:28:30.899Z,63.30
2018-09-14T01:29:02.758Z,63.40
2018-09-14T01:29:34.667Z,63.60
2018-09-14T01:30:06.955Z,63.50
2018-09-14T01:30:39.029Z,63.40
2018-09-14T01:31:10.980Z,63.30
2018-09-14T01:31:42.855Z,63.40
2018-09-14T01:32:14.684Z,63.50
2018-09-14T01:32:46.527Z,63.50
2018-09-14T01:33:18.428Z,63.60
2018-09-14T01:33:50.236Z,63.60
2018-09-14T01:34:22.035Z,64.20
2018-09-14T01:34:53.816Z,63.10
2018-09-14T01:35:25.657Z,63.80
2018-09-14T01:35:57.610Z,63.50
2018-09-14T01:36:29.568Z,63.60
2018-09-14T01:37:01.645Z,63.50
2018-09-14T01:37:33.516Z,63.40
2018-09-14T01:38:05.445Z,63.20
2018-09-14T01:38:37.261Z,63.50
2018-09-14T01:39:09.326Z,63.50
2018-09-14T01:39:41.255Z,63.50
2018-09-14T01:40:13.116Z,64.30
2018-09-14T01:40:44.972Z,63.70
2018-09-14T01:41:16.806Z,63.70
2018-09-14T01:41:48.726Z,63.50
2018-09-14T01:42:20.589Z,63.50
2018-09-14T01:42:52.466Z,63.60
2018-09-14T01:43:24.401Z,63.60
2018-09-14T01:43:56.337Z,63.50
2018-09-14T01:44:28.216Z,63.50
2018-09-14T01:45:00.105Z,63.70
2018-09-14T01:45:32.035Z,63.70
2018-09-14T01:46:03.828Z,63.60
2018-09-14T01:46:35.748Z,63.50
2018-09-14T01:47:07.731Z,63.70
2018-09-14T01:47:39.544Z,64.30
2018-09-14T01:48:11.455Z,63.50
2018-09-14T01:48:43.322Z,63.70
2018-09-14T01:49:15.127Z,63.70
2018-09-14T01:49:46.965Z,63.80
2018-09-14T01:50:18.957Z,63.70
2018-09-14T01:50:50.917Z,63.60
2018-09-14T01:51:22.913Z,63.70
2018-09-14T01:51:54.934Z,64.20
2018-09-14T01:52:26.856Z,64.30
2018-09-14T01:52:58.654Z,63.60
2018-09-14T01:53:30.771Z,63.70
2018-09-14T01:54:02.684Z,63.80
2018-09-14T01:54:34.615Z,63.80
2018-09-14T01:55:06.478Z,63.60
2018-09-14T01:55:38.295Z,63.60
2018-09-14T01:56:10.271Z,63.60
2018-09-14T01:56:42.094Z,63.60
2018-09-14T01:57:13.905Z,63.50
2018-09-14T01:57:45.712Z,63.50
2018-09-14T01:58:17.504Z,63.40
2018-09-14T01:58:49.334Z,63.60
2018-09-14T01:59:21.466Z,63.60
2018-09-14T01:59:53.239Z,63.50
2018-09-14T02:00:25.196Z,63.40
2018-09-14T02:00:57.051Z,63.50
2018-09-14T02:01:28.991Z,63.60
2018-09-14T02:02:00.797Z,63.60
2018-09-14T02:02:32.625Z,63.30
2018-09-14T02:03:04.577Z,63.40
2018-09-14T02:03:36.372Z,63.50
2018-09-14T02:04:08.467Z,63.40
2018-09-14T02:04:40.268Z,63.50
2018-09-14T02:05:12.078Z,63.50
2018-09-14T02:05:44.101Z,63.60
2018-09-14T02:06:16.037Z,63.60
2018-09-14T02:06:47.947Z,63.30
2018-09-14T02:07:19.844Z,63.50
2018-09-14T02:07:51.865Z,63.60
2018-09-14T02:08:23.749Z,63.40
2018-09-14T02:08:55.574Z,63.60
2018-09-14T02:09:27.348Z,63.50
2018-09-14T02:09:59.311Z,63.70
2018-09-14T02:10:31.172Z,63.80
2018-09-14T02:11:03.075Z,63.70
2018-09-14T02:11:34.842Z,63.60
2018-09-14T02:12:06.778Z,63.50
2018-09-14T02:12:38.603Z,63.40
2018-09-14T02:13:10.445Z,63.30
2018-09-14T02:13:42.393Z,63.50
2018-09-14T02:14:14.313Z,63.70
2018-09-14T02:14:46.168Z,63.50
2018-09-14T02:15:18.193Z,63.60
2018-09-14T02:15:50.232Z,63.50
2018-09-14T02:16:22.065Z,63.50
2018-09-14T02:16:54.003Z,63.50
2018-09-14T02:17:25.796Z,63.50
2018-09-14T02:17:57.771Z,63.60
2018-09-14T02:18:29.581Z,63.50
2018-09-14T02:19:01.397Z,63.60
2018-09-14T02:19:33.195Z,63.60
2018-09-14T02:20:05.195Z,63.50
2018-09-14T02:20:37.248Z,63.50
2018-09-14T02:21:09.154Z,63.60
2018-09-14T02:21:40.990Z,63.50
2018-09-14T02:22:12.953Z,63.50
2018-09-14T02:22:44.954Z,63.40
2018-09-14T02:23:16.843Z,63.50
2018-09-14T02:23:48.705Z,63.40
2018-09-14T02:24:20.526Z,63.30
2018-09-14T02:24:52.365Z,63.50
2018-09-14T02:25:24.197Z,63.50
2018-09-14T02:25:56.222Z,63.40
2018-09-14T02:26:28.152Z,63.40
2018-09-14T02:27:00.086Z,63.30
2018-09-14T02:27:31.943Z,63.40
2018-09-14T02:28:03.717Z,63.30
2018-09-14T02:28:35.742Z,63.30
2018-09-14T02:29:07.554Z,63.40
2018-09-14T02:29:39.364Z,64.00
2018-09-14T02:30:11.207Z,63.40
2018-09-14T02:30:43.143Z,63.40
2018-09-14T02:31:15.164Z,63.50
2018-09-14T02:31:47.015Z,63.30
2018-09-14T02:32:18.903Z,63.40
2018-09-14T02:32:50.743Z,63.30
2018-09-14T02:33:22.527Z,63.40
2018-09-14T02:33:54.300Z,63.50
2018-09-14T02:34:26.139Z,63.50
2018-09-14T02:34:58.032Z,63.40
2018-09-14T02:35:29.913Z,63.40
2018-09-14T02:36:01.814Z,63.40
2018-09-14T02:36:33.781Z,63.50
2018-09-14T02:37:05.562Z,63.50
2018-09-14T02:37:37.468Z,63.50
2018-09-14T02:38:09.299Z,63.40
2018-09-14T02:38:41.131Z,63.30
2018-09-14T02:39:12.929Z,63.30
2018-09-14T02:39:44.842Z,63.30
2018-09-14T02:40:16.725Z,63.30
2018-09-14T02:40:48.662Z,63.30
2018-09-14T02:41:20.484Z,63.30
2018-09-14T02:41:52.449Z,63.10
2018-09-14T02:42:24.244Z,63.20
2018-09-14T02:42:56.032Z,63.20
2018-09-14T02:43:27.994Z,63.30
2018-09-14T02:43:59.920Z,63.20
2018-09-14T02:44:31.689Z,63.10
2018-09-14T02:45:03.553Z,63.20
2018-09-14T02:45:35.411Z,63.10
2018-09-14T02:46:07.263Z,63.10
2018-09-14T02:46:39.101Z,63.10
2018-09-14T02:47:10.921Z,63.10
2018-09-14T02:47:42.822Z,63.10
2018-09-14T02:48:14.601Z,63.10
2018-09-14T02:48:46.572Z,63.10
2018-09-14T02:49:18.380Z,63.10
2018-09-14T02:49:50.222Z,63.10
2018-09-14T02:50:22.042Z,64.10
2018-09-14T02:50:53.923Z,63.20
2018-09-14T02:51:25.752Z,63.10
2018-09-14T02:51:57.566Z,63.10
2018-09-14T02:52:29.353Z,63.00
2018-09-14T02:53:01.228Z,63.00
2018-09-14T02:53:33.237Z,63.00
2018-09-14T02:54:05.231Z,63.70
2018-09-14T02:54:37.131Z,63.80
2018-09-14T02:55:09.141Z,63.00
2018-09-14T02:55:41.200Z,63.80
2018-09-14T02:56:13.086Z,63.10
2018-09-14T02:56:45.232Z,63.00
2018-09-14T02:57:17.055Z,63.00
2018-09-14T02:57:49.017Z,63.00
2018-09-14T02:58:20.900Z,63.00
2018-09-14T02:58:52.800Z,62.80
2018-09-14T02:59:24.699Z,62.90
2018-09-14T02:59:56.894Z,62.90
2018-09-14T03:00:28.915Z,63.00
2018-09-14T03:01:00.879Z,62.90
2018-09-14T03:01:33.150Z,62.90
2018-09-14T03:02:05.023Z,62.90
2018-09-14T03:02:36.934Z,62.80
2018-09-14T03:03:08.789Z,62.90
2018-09-14T03:03:40.851Z,62.90
2018-09-14T03:04:12.741Z,62.90
2018-09-14T03:04:44.539Z,63.00
2018-09-14T03:05:16.478Z,63.50
2018-09-14T03:05:48.291Z,63.00
2018-09-14T03:06:20.229Z,62.90
2018-09-14T03:06:52.100Z,62.90
2018-09-14T03:07:23.978Z,62.90
2018-09-14T03:07:55.917Z,62.90
2018-09-14T03:08:27.830Z,62.90
2018-09-14T03:08:59.780Z,62.90
2018-09-14T03:09:31.750Z,62.90
2018-09-14T03:10:03.555Z,62.80
2018-09-14T03:10:35.369Z,62.80
2018-09-14T03:11:07.271Z,62.90
2018-09-14T03:11:39.101Z,62.80
2018-09-14T03:12:10.928Z,62.80
2018-09-14T03:12:42.834Z,62.70
2018-09-14T03:13:14.679Z,62.70
2018-09-14T03:13:46.649Z,62.70
2018-09-14T03:14:18.519Z,62.80
2018-09-14T03:14:50.337Z,63.20
2018-09-14T03:15:22.219Z,62.70
2018-09-14T03:15:54.197Z,62.70
2018-09-14T03:16:26.029Z,62.70
2018-09-14T03:16:57.829Z,62.80
2018-09-14T03:17:29.667Z,62.70
2018-09-14T03:18:01.720Z,62.60
2018-09-14T03:18:33.600Z,62.70
2018-09-14T03:19:05.440Z,62.70
2018-09-14T03:19:37.369Z,63.50
2018-09-14T03:20:09.343Z,62.60
2018-09-14T03:20:41.169Z,62.80
2018-09-14T03:21:12.939Z,62.70
2018-09-14T03:21:44.787Z,62.70
2018-09-14T03:22:16.709Z,62.60
2018-09-14T03:22:48.504Z,62.60
2018-09-14T03:23:20.485Z,62.60
2018-09-14T03:23:52.304Z,62.60
2018-09-14T03:24:24.141Z,62.60
2018-09-14T03:24:55.954Z,63.30
2018-09-14T03:25:27.771Z,62.60
2018-09-14T03:25:59.698Z,62.70
2018-09-14T03:26:31.494Z,62.70
2018-09-14T03:27:03.319Z,62.60
2018-09-14T03:27:35.130Z,62.60
2018-09-14T03:28:06.963Z,62.60
2018-09-14T03:28:38.815Z,62.60
2018-09-14T03:29:10.629Z,62.60
2018-09-14T03:29:42.451Z,62.60
2018-09-14T03:30:14.295Z,62.70
2018-09-14T03:30:46.246Z,62.60
2018-09-14T03:31:18.051Z,62.60
2018-09-14T03:31:49.868Z,63.30
2018-09-14T03:32:22.084Z,62.60
2018-09-14T03:32:54.179Z,62.60
2018-09-14T03:33:26.099Z,62.60
2018-09-14T03:33:58.091Z,62.60
2018-09-14T03:34:29.966Z,63.00
2018-09-14T03:35:01.889Z,62.60
2018-09-14T03:35:33.705Z,62.60
2018-09-14T03:36:05.566Z,62.60
2018-09-14T03:36:37.743Z,62.70
2018-09-14T03:37:09.684Z,62.60
2018-09-14T03:37:41.496Z,62.60
2018-09-14T03:38:13.359Z,62.60
2018-09-14T03:38:45.288Z,62.70
2018-09-14T03:39:17.182Z,62.80
2018-09-14T03:39:49.068Z,62.70
2018-09-14T03:40:20.846Z,62.70
2018-09-14T03:40:52.655Z,62.60
2018-09-14T03:41:24.599Z,62.70
2018-09-14T03:41:56.437Z,62.70
2018-09-14T03:42:28.253Z,62.70
2018-09-14T03:43:00.202Z,62.70
2018-09-14T03:43:32.057Z,62.60
2018-09-14T03:44:03.896Z,62.70
2018-09-14T03:44:35.686Z,62.60
2018-09-14T03:45:07.520Z,62.60
2018-09-14T03:45:39.438Z,62.60
2018-09-14T03:46:11.301Z,62.60
2018-09-14T03:46:43.168Z,62.60
2018-09-14T03:47:15.000Z,62.60
2018-09-14T03:47:46.982Z,62.60
2018-09-14T03:48:18.800Z,62.60
2018-09-14T03:48:50.827Z,62.50
2018-09-14T03:49:22.777Z,62.60
2018-09-14T03:49:54.849Z,62.50
2018-09-14T03:50:26.719Z,62.60
2018-09-14T03:50:58.580Z,62.60
2018-09-14T03:51:30.469Z,62.80
2018-09-14T03:52:02.287Z,62.70
2018-09-14T03:52:34.148Z,62.60
2018-09-14T03:53:05.957Z,62.60
2018-09-14T03:53:37.788Z,62.60
2018-09-14T03:54:09.602Z,62.60
2018-09-14T03:54:41.549Z,62.60
2018-09-14T03:55:13.508Z,62.60
2018-09-14T03:55:45.454Z,62.00
2018-09-14T03:56:17.244Z,62.60
2018-09-14T03:56:49.118Z,62.50
2018-09-14T03:57:21.046Z,62.60
2018-09-14T03:57:53.134Z,62.60
2018-09-14T03:58:25.005Z,62.50
2018-09-14T03:58:57.175Z,62.50
2018-09-14T03:59:29.078Z,62.50
2018-09-14T04:00:01.099Z,62.50
2018-09-14T04:00:33.220Z,62.60
2018-09-14T04:01:05.080Z,62.60
2018-09-14T04:01:37.079Z,62.60
2018-09-14T04:02:09.048Z,62.60
2018-09-14T04:02:41.519Z,62.60
2018-09-14T04:03:14.075Z,62.40
2018-09-14T04:03:46.035Z,62.50
2018-09-14T04:04:17.900Z,62.50
2018-09-14T04:04:49.745Z,62.50
2018-09-14T04:05:21.618Z,62.50
2018-09-14T04:05:53.601Z,62.50
2018-09-14T04:06:26.002Z,62.40
2018-09-14T04:06:57.830Z,62.50
2018-09-14T04:07:29.826Z,62.40
2018-09-14T04:08:01.735Z,62.40
2018-09-14T04:08:33.662Z,62.40
2018-09-14T04:09:05.541Z,62.50
2018-09-14T04:09:37.352Z,62.50
2018-09-14T04:10:09.202Z,62.40
2018-09-14T04:10:41.033Z,62.50
2018-09-14T04:11:12.856Z,62.50
2018-09-14T04:11:45.031Z,62.50
2018-09-14T04:12:17.077Z,62.50
2018-09-14T04:12:48.915Z,63.20
2018-09-14T04:13:20.859Z,62.70
2018-09-14T04:13:52.857Z,62.40
2018-09-14T04:14:24.960Z,62.60
2018-09-14T04:14:56.835Z,62.50
2018-09-14T04:15:28.952Z,62.50
2018-09-14T04:16:01.191Z,62.50
2018-09-14T04:16:32.994Z,62.40
2018-09-14T04:17:04.915Z,62.50
2018-09-14T04:17:36.973Z,62.40
2018-09-14T04:18:08.802Z,62.40
2018-09-14T04:18:41.561Z,62.40
2018-09-14T04:19:13.816Z,62.30
2018-09-14T04:19:45.781Z,63.30
2018-09-14T04:20:17.674Z,64.00
2018-09-14T04:20:49.497Z,64.60
2018-09-14T04:21:21.301Z,64.30
2018-09-14T04:21:53.125Z,63.80
2018-09-14T04:22:25.020Z,63.90
2018-09-14T04:22:56.885Z,64.00
2018-09-14T04:23:28.823Z,64.20
2018-09-14T04:24:00.853Z,64.40
2018-09-14T04:24:32.684Z,64.40
2018-09-14T04:25:05.166Z,65.00
2018-09-14T04:25:37.113Z,65.00
2018-09-14T04:26:08.972Z,64.50
2018-09-14T04:26:40.816Z,64.50
2018-09-14T04:27:12.669Z,64.90
2018-09-14T04:27:44.594Z,65.10
2018-09-14T04:28:16.419Z,65.30
2018-09-14T04:28:48.517Z,64.80
2018-09-14T04:29:20.328Z,64.40
2018-09-14T04:29:52.184Z,64.60
2018-09-14T04:30:23.960Z,65.40
2018-09-14T04:30:55.764Z,65.30
2018-09-14T04:31:27.532Z,65.00
2018-09-14T04:31:59.385Z,65.10
2018-09-14T04:32:31.273Z,65.00
2018-09-14T04:33:03.081Z,65.30
2018-09-14T04:33:34.905Z,65.20
2018-09-14T04:34:06.755Z,65.30
2018-09-14T04:34:38.532Z,65.60
2018-09-14T04:35:10.326Z,65.50
2018-09-14T04:35:42.347Z,65.60
2018-09-14T04:36:14.314Z,65.50
2018-09-14T04:36:46.187Z,65.10
2018-09-14T04:37:18.084Z,65.50
2018-09-14T04:37:49.944Z,65.30
2018-09-14T04:38:21.935Z,65.60
2018-09-14T04:38:53.975Z,65.40
2018-09-14T04:39:25.954Z,66.20
2018-09-14T04:39:57.885Z,65.10
2018-09-14T04:40:29.903Z,65.40
2018-09-14T04:41:01.725Z,65.40
2018-09-14T04:41:33.660Z,65.50
2018-09-14T04:42:05.503Z,66.20
2018-09-14T04:42:37.298Z,65.50
2018-09-14T04:43:09.389Z,65.20
2018-09-14T04:43:41.177Z,65.60
2018-09-14T04:44:13.021Z,65.50
2018-09-14T04:44:45.433Z,65.40
2018-09-14T04:45:17.315Z,65.40
2018-09-14T04:45:49.137Z,65.10
2018-09-14T04:46:20.985Z,65.50
2018-09-14T04:46:53.244Z,65.40
2018-09-14T04:47:25.415Z,65.20
2018-09-14T04:47:57.284Z,65.50
2018-09-14T04:48:29.173Z,65.40
2018-09-14T04:49:01.165Z,64.80
2018-09-14T04:49:33.048Z,65.30
2018-09-14T04:50:04.932Z,65.50
2018-09-14T04:50:36.785Z,66.10
2018-09-14T04:51:08.824Z,65.40
2018-09-14T04:51:40.825Z,65.30
2018-09-14T04:52:12.651Z,65.60
2018-09-14T04:52:44.469Z,65.70
2018-09-14T04:53:16.317Z,65.50
2018-09-14T04:53:48.154Z,65.40
2018-09-14T04:54:20.019Z,65.50
2018-09-14T04:54:51.972Z,65.60
2018-09-14T04:55:23.973Z,65.00
2018-09-14T04:55:55.771Z,65.30
2018-09-14T04:56:27.574Z,65.40
2018-09-14T04:56:59.412Z,65.40
2018-09-14T04:57:31.586Z,65.40
2018-09-14T04:58:03.654Z,65.50
2018-09-14T04:58:35.564Z,65.30
2018-09-14T04:59:07.354Z,65.30
2018-09-14T04:59:39.457Z,64.70
2018-09-14T05:00:11.252Z,65.20
2018-09-14T05:00:43.295Z,65.30
2018-09-14T05:01:15.193Z,65.30
2018-09-14T05:01:46.992Z,65.80
2018-09-14T05:02:18.835Z,65.40
2018-09-14T05:02:50.694Z,65.30
2018-09-14T05:03:22.632Z,65.40
2018-09-14T05:03:54.687Z,65.40
2018-09-14T05:04:26.786Z,65.50
2018-09-14T05:04:58.626Z,65.40
2018-09-14T05:05:30.452Z,65.20
2018-09-14T05:06:02.278Z,65.10
2018-09-14T05:06:34.237Z,65.20
2018-09-14T05:07:06.184Z,65.20
2018-09-14T05:07:38.255Z,65.20
2018-09-14T05:08:10.321Z,65.20
2018-09-14T05:08:42.135Z,65.00
2018-09-14T05:09:14.131Z,65.20
2018-09-14T05:09:46.004Z,65.10
2018-09-14T05:10:17.804Z,65.00
2018-09-14T05:10:49.645Z,65.30
2018-09-14T05:11:21.563Z,65.00
2018-09-14T05:11:53.526Z,65.10
2018-09-14T05:12:25.375Z,65.00
2018-09-14T05:12:57.384Z,65.60
2018-09-14T05:13:30.111Z,65.00
2018-09-14T05:14:02.104Z,64.90
2018-09-14T05:14:34.049Z,65.10
2018-09-14T05:15:05.958Z,64.80
2018-09-14T05:15:37.961Z,65.10
2018-09-14T05:16:09.793Z,65.00
2018-09-14T05:16:41.732Z,65.10
2018-09-14T05:17:13.717Z,65.10
2018-09-14T05:17:45.552Z,64.80
2018-09-14T05:18:17.441Z,65.00
2018-09-14T05:18:49.279Z,65.10
2018-09-14T05:19:21.118Z,64.90
2018-09-14T05:19:53.159Z,65.10
2018-09-14T05:20:25.029Z,65.00
2018-09-14T05:20:56.875Z,65.10
2018-09-14T05:21:28.929Z,64.90
2018-09-14T05:22:01.052Z,65.00
2018-09-14T05:22:32.963Z,65.00
2018-09-14T05:23:04.899Z,64.90
2018-09-14T05:23:36.692Z,65.20
2018-09-14T05:24:08.531Z,65.10
2018-09-14T05:24:40.643Z,65.00
2018-09-14T05:25:13.000Z,65.10
2018-09-14T05:25:45.117Z,65.00
2018-09-14T05:26:17.128Z,65.00
2018-09-14T05:26:49.021Z,65.00
2018-09-14T05:27:20.871Z,65.10
2018-09-14T05:27:52.938Z,65.80
2018-09-14T05:28:24.789Z,65.20
2018-09-14T05:28:56.622Z,64.30
2018-09-14T05:29:28.465Z,65.00
2018-09-14T05:30:00.308Z,65.00
2018-09-14T05:30:32.138Z,65.00
2018-09-14T05:31:03.949Z,64.90
2018-09-14T05:31:35.774Z,64.90
2018-09-14T05:32:07.937Z,64.90
2018-09-14T05:32:39.792Z,64.90
2018-09-14T05:33:11.707Z,65.00
2018-09-14T05:33:43.549Z,65.70
2018-09-14T05:34:15.343Z,64.90
2018-09-14T05:34:47.156Z,64.90
2018-09-14T05:35:19.109Z,65.00
2018-09-14T05:35:50.909Z,64.90
2018-09-14T05:37:01.007Z,64.80
2018-09-14T05:37:33.145Z,64.90
2018-09-14T05:38:04.999Z,65.10
2018-09-14T05:38:36.803Z,65.30
2018-09-14T05:39:08.705Z,65.00
2018-09-14T05:39:40.658Z,65.00
2018-09-14T05:40:12.597Z,64.90
2018-09-14T05:40:44.416Z,64.80
2018-09-14T05:41:16.265Z,64.90
2018-09-14T05:41:48.115Z,64.80
2018-09-14T05:42:19.913Z,65.00
2018-09-14T05:42:51.811Z,65.00
2018-09-14T05:43:23.616Z,65.00
2018-09-14T05:43:55.505Z,65.00
2018-09-14T05:44:27.561Z,65.00
2018-09-14T05:44:59.606Z,64.90
2018-09-14T05:45:31.632Z,64.80
2018-09-14T05:46:03.468Z,64.80
2018-09-14T05:46:35.533Z,64.90
2018-09-14T05:47:07.305Z,64.90
2018-09-14T05:47:39.094Z,64.90
2018-09-14T05:48:10.880Z,64.90
2018-09-14T05:48:42.661Z,64.20
2018-09-14T05:49:14.589Z,64.80
2018-09-14T05:49:46.387Z,64.80
2018-09-14T05:50:18.195Z,64.90
2018-09-14T05:50:50.128Z,65.00
2018-09-14T05:51:21.954Z,64.80
2018-09-14T05:51:53.792Z,65.00
2018-09-14T05:52:25.715Z,64.80
2018-09-14T05:52:57.619Z,64.90
2018-09-14T05:53:29.401Z,65.60
2018-09-14T05:54:01.243Z,64.70
2018-09-14T05:54:33.178Z,65.00
2018-09-14T05:55:05.196Z,64.90
2018-09-14T05:55:37.159Z,65.00
2018-09-14T05:56:08.958Z,64.90
2018-09-14T05:56:40.738Z,64.90
2018-09-14T05:57:12.530Z,64.80
2018-09-14T05:57:44.484Z,64.80
2018-09-14T05:58:16.444Z,65.00
2018-09-14T05:58:48.315Z,64.90
2018-09-14T05:59:20.162Z,64.80
2018-09-14T05:59:52.027Z,64.90
2018-09-14T06:00:23.836Z,64.80
2018-09-14T06:00:55.747Z,64.80
2018-09-14T06:01:27.734Z,64.80
2018-09-14T06:01:59.526Z,64.80
2018-09-14T06:02:31.403Z,64.80
2018-09-14T06:03:03.246Z,64.80
2018-09-14T06:03:35.193Z,64.80
2018-09-14T06:04:07.144Z,65.10
2018-09-14T06:04:39.003Z,64.90
2018-09-14T06:05:10.844Z,64.80
2018-09-14T06:05:42.815Z,65.30
2018-09-14T06:06:14.793Z,64.80
2018-09-14T06:06:46.644Z,64.80
2018-09-14T06:07:18.475Z,64.70
2018-09-14T06:07:50.414Z,64.70
2018-09-14T06:08:22.275Z,64.80
2018-09-14T06:08:54.089Z,65.00
2018-09-14T06:09:26.032Z,64.70
2018-09-14T06:09:57.855Z,64.90
2018-09-14T06:10:29.633Z,64.80
2018-09-14T06:11:01.448Z,64.80
2018-09-14T06:11:33.265Z,64.80
2018-09-14T06:12:05.096Z,64.70
2018-09-14T06:12:37.124Z,64.70
2018-09-14T06:13:09.075Z,64.70
2018-09-14T06:13:40.966Z,64.70
2018-09-14T06:14:12.752Z,64.90
2018-09-14T06:14:44.755Z,64.60
2018-09-14T06:15:16.669Z,64.70
2018-09-14T06:15:48.459Z,64.90
2018-09-14T06:16:20.245Z,64.80
2018-09-14T06:16:52.109Z,64.60
2018-09-14T06:17:24.098Z,64.70
2018-09-14T06:17:55.938Z,64.70
2018-09-14T06:18:27.768Z,64.70
2018-09-14T06:18:59.573Z,64.60
2018-09-14T06:19:31.525Z,64.60
2018-09-14T06:20:03.380Z,64.80
2018-09-14T06:20:35.206Z,64.50
2018-09-14T06:21:07.241Z,64.60
2018-09-14T06:21:39.105Z,64.50
2018-09-14T06:22:10.880Z,64.50
2018-09-14T06:22:42.741Z,64.50
2018-09-14T06:23:14.677Z,64.50
2018-09-14T06:23:46.701Z,64.50
2018-09-14T06:24:18.706Z,64.50
2018-09-14T06:24:50.686Z,64.60
2018-09-14T06:25:22.602Z,64.50
2018-09-14T06:25:54.448Z,64.40
2018-09-14T06:26:26.257Z,64.70
2018-09-14T06:26:58.113Z,64.60
2018-09-14T06:27:30.016Z,64.80
2018-09-14T06:28:01.788Z,64.70
2018-09-14T06:28:33.678Z,64.60
2018-09-14T06:29:05.518Z,64.50
2018-09-14T06:29:37.347Z,64.70
2018-09-14T06:30:09.129Z,64.60
2018-09-14T06:30:40.933Z,64.50
2018-09-14T06:31:12.758Z,64.60
2018-09-14T06:31:44.560Z,64.60
2018-09-14T06:32:16.367Z,64.50
2018-09-14T06:32:48.305Z,64.50
2018-09-14T06:33:20.298Z,64.50
2018-09-14T06:33:52.061Z,64.50
2018-09-14T06:34:23.908Z,64.50
2018-09-14T06:34:55.787Z,64.40
2018-09-14T06:35:27.610Z,64.50
2018-09-14T06:35:59.428Z,64.50
2018-09-14T06:36:31.251Z,64.50
2018-09-14T06:37:03.100Z,65.20
2018-09-14T06:37:34.908Z,64.60
2018-09-14T06:38:06.901Z,64.50
2018-09-14T06:38:38.702Z,64.40
2018-09-14T06:39:10.544Z,64.50
2018-09-14T06:39:42.402Z,64.50
2018-09-14T06:40:14.358Z,64.50
2018-09-14T06:40:46.238Z,64.50
2018-09-14T06:41:18.078Z,64.50
2018-09-14T06:41:49.877Z,64.40
2018-09-14T06:42:21.664Z,64.30
2018-09-14T06:42:53.544Z,64.40
2018-09-14T06:43:25.425Z,64.30
2018-09-14T06:43:57.288Z,64.30
2018-09-14T06:44:29.121Z,64.30
2018-09-14T06:45:00.911Z,65.00
2018-09-14T06:45:32.926Z,64.40
2018-09-14T06:46:04.783Z,65.10
2018-09-14T06:46:36.568Z,64.40
2018-09-14T06:47:08.389Z,64.40
2018-09-14T06:47:40.347Z,64.50
2018-09-14T06:48:12.132Z,65.20
2018-09-14T06:48:44.123Z,64.40
2018-09-14T06:49:16.014Z,64.40
2018-09-14T06:49:47.948Z,64.70
2018-09-14T06:50:19.781Z,64.50
2018-09-14T06:50:51.633Z,64.50
2018-09-14T06:51:23.739Z,64.50